This is the latest recevied weather packets stored in our database for station/object K1TTC. If no packets are shown the sender has not sent any weather packets the latest 10 day(s).
| Time | Temp. | Humidity | Pressure | Rain* | Wind** | Luminosity | Snow |
|---|---|---|---|---|---|---|---|
| 1777652886 | 14.44° C | 38% | 1010.9 hPa | 0 mm | - | 981 W/m² | - |
| 1777652285 | 13.89° C | 38% | 1010.9 hPa | 0 mm | - | 946 W/m² | - |
| 1777651685 | 13.89° C | 39% | 1011.1 hPa | 0 mm | - | 944 W/m² | - |
| 1777651086 | 13.89° C | 41% | 1011 hPa | 0 mm | - | 969 W/m² | - |
| 1777649885 | 13.33° C | 40% | 1011.4 hPa | 0 mm | - | 802 W/m² | - |
| 1777649286 | 13.33° C | 42% | 1011.3 hPa | 0 mm | - | 981 W/m² | - |
| 1777648685 | 12.78° C | 43% | 1011.4 hPa | 0 mm | - | 1018 W/m² | - |
| 1777648085 | 12.22° C | 43% | 1011.5 hPa | 0 mm | - | 251 W/m² | - |
| 1777647486 | 11.67° C | 43% | 1011.8 hPa | 0 mm | - | 241 W/m² | - |
| 1777646286 | 12.22° C | 43% | 1011.9 hPa | 0 mm | - | 297 W/m² | - |
| 1777645685 | 12.22° C | 45% | 1011.6 hPa | 0 mm | - | 1118 W/m² | - |
| 1777645087 | 11.67° C | 46% | 1011.8 hPa | 0 mm | - | 851 W/m² | - |
| 1777644485 | 11.67° C | 47% | 1011.5 hPa | 0 mm | - | 856 W/m² | - |
| 1777643885 | 11.11° C | 48% | 1011.5 hPa | 0 mm | - | 153 W/m² | - |
| 1777643286 | 11.11° C | 49% | 1011.6 hPa | 0 mm | - | 742 W/m² | - |
| 1777642685 | 11.11° C | 49% | 1011.4 hPa | 0 mm | - | 712 W/m² | - |
| 1777642085 | 11.11° C | 49% | 1011.6 hPa | 0 mm | - | 677 W/m² | - |
| 1777641504 | 10.56° C | 53% | 1011.4 hPa | 0 mm | - | 652 W/m² | - |
| 1777640891 | 10.56° C | 53% | 1011.5 hPa | 0 mm | - | 631 W/m² | - |
| 1777640285 | 10° C | 56% | 1011.5 hPa | 0 mm | - | 592 W/m² | - |
| 1777638483 | 8.89° C | 61% | 1011.2 hPa | 0 mm | - | 504 W/m² | - |
| 1777637883 | 8.89° C | 63% | 1011.1 hPa | 0 mm | - | 471 W/m² | - |
| 1777637283 | 8.33° C | 64% | 1011 hPa | 0 mm | - | 443 W/m² | - |
| 1777636682 | 8.33° C | 65% | 1011 hPa | 0 mm | - | 40 W/m² | - |
| 1777636083 | 7.78° C | 66% | 1011 hPa | 0 mm | - | 39 W/m² | - |
* Rain latest hour (hover to see other rain measurements)
** Current wind speed in m/s (hover to see current wind gust speed)